sensor_id;sensor_type;location;lat;lon;timestamp;pressure;altitude;pressure_sealevel;temperature;humidity
15267;BME280;7735;49.144;8.668;2023-07-08T00:01:58;100139.88;;;24.58;37.13
15267;BME280;7735;49.144;8.668;2023-07-08T00:04:26;100141.81;;;24.56;36.81
15267;BME280;7735;49.144;8.668;2023-07-08T00:06:52;100142.84;;;24.54;37.08
15267;BME280;7735;49.144;8.668;2023-07-08T00:09:19;100142.84;;;24.54;37.16
15267;BME280;7735;49.144;8.668;2023-07-08T00:11:46;100136.66;;;24.53;36.93
15267;BME280;7735;49.144;8.668;2023-07-08T00:14:12;100136.03;;;24.50;36.76
15267;BME280;7735;49.144;8.668;2023-07-08T00:16:39;100128.13;;;24.48;37.16
15267;BME280;7735;49.144;8.668;2023-07-08T00:19:08;100123.84;;;24.46;37.20
15267;BME280;7735;49.144;8.668;2023-07-08T00:21:36;100124.16;;;24.41;37.14
15267;BME280;7735;49.144;8.668;2023-07-08T00:24:03;100128.75;;;24.39;37.05
15267;BME280;7735;49.144;8.668;2023-07-08T00:26:30;100119.97;;;24.37;37.37
15267;BME280;7735;49.144;8.668;2023-07-08T00:28:57;100128.06;;;24.36;37.06
15267;BME280;7735;49.144;8.668;2023-07-08T00:31:24;100121.91;;;24.35;37.15
15267;BME280;7735;49.144;8.668;2023-07-08T00:33:53;100124.75;;;24.32;37.19
15267;BME280;7735;49.144;8.668;2023-07-08T00:36:20;100128.34;;;24.31;37.36
15267;BME280;7735;49.144;8.668;2023-07-08T00:38:49;100131.97;;;24.30;37.38
15267;BME280;7735;49.144;8.668;2023-07-08T00:41:20;100127.78;;;24.26;37.14
15267;BME280;7735;49.144;8.668;2023-07-08T00:43:49;100139.28;;;24.26;37.23
15267;BME280;7735;49.144;8.668;2023-07-08T00:46:37;100139.28;;;24.26;37.42
15267;BME280;7735;49.144;8.668;2023-07-08T00:49:26;100144.81;;;24.23;37.61
15267;BME280;7735;49.144;8.668;2023-07-08T00:51:55;100153.94;;;24.19;37.31
15267;BME280;7735;49.144;8.668;2023-07-08T00:54:23;100157.66;;;24.17;37.45
15267;BME280;7735;49.144;8.668;2023-07-08T00:56:52;100148.91;;;24.15;37.15
15267;BME280;7735;49.144;8.668;2023-07-08T00:59:24;100152.53;;;24.14;37.16
15267;BME280;7735;49.144;8.668;2023-07-08T01:01:51;100160.50;;;24.14;37.43
15267;BME280;7735;49.144;8.668;2023-07-08T01:04:22;100157.97;;;24.12;37.26
15267;BME280;7735;49.144;8.668;2023-07-08T01:06:54;100156.31;;;24.10;37.55
15267;BME280;7735;49.144;8.668;2023-07-08T01:09:27;100149.41;;;24.07;37.67
15267;BME280;7735;49.144;8.668;2023-07-08T01:11:55;100157.66;;;24.02;37.79
15267;BME280;7735;49.144;8.668;2023-07-08T01:14:26;100144.66;;;23.98;37.86
15267;BME280;7735;49.144;8.668;2023-07-08T01:16:56;100140.47;;;23.94;38.08
15267;BME280;7735;49.144;8.668;2023-07-08T01:19:24;100134.50;;;23.90;38.07
15267;BME280;7735;49.144;8.668;2023-07-08T01:22:02;100140.78;;;23.89;37.96
15267;BME280;7735;49.144;8.668;2023-07-08T01:24:30;100135.56;;;23.88;37.89
15267;BME280;7735;49.144;8.668;2023-07-08T01:26:58;100137.38;;;23.87;38.13
15267;BME280;7735;49.144;8.668;2023-07-08T01:29:26;100140.88;;;23.88;37.95
15267;BME280;7735;49.144;8.668;2023-07-08T01:31:54;100146.31;;;23.86;37.88
15267;BME280;7735;49.144;8.668;2023-07-08T01:34:21;100149.03;;;23.85;37.83
15267;BME280;7735;49.144;8.668;2023-07-08T01:36:52;100142.00;;;23.84;37.96
15267;BME280;7735;49.144;8.668;2023-07-08T01:39:23;100138.59;;;23.82;37.95
15267;BME280;7735;49.144;8.668;2023-07-08T01:41:51;100138.69;;;23.80;38.01
15267;BME280;7735;49.144;8.668;2023-07-08T01:44:21;100134.34;;;23.79;38.06
15267;BME280;7735;49.144;8.668;2023-07-08T01:46:49;100123.69;;;23.79;37.72
15267;BME280;7735;49.144;8.668;2023-07-08T01:49:18;100129.97;;;23.78;37.67
15267;BME280;7735;49.144;8.668;2023-07-08T01:51:46;100123.88;;;23.76;37.84
15267;BME280;7735;49.144;8.668;2023-07-08T01:54:14;100130.34;;;23.72;37.80
15267;BME280;7735;49.144;8.668;2023-07-08T01:56:42;100126.84;;;23.71;37.73
15267;BME280;7735;49.144;8.668;2023-07-08T01:59:08;100124.28;;;23.70;37.79
15267;BME280;7735;49.144;8.668;2023-07-08T02:01:35;100124.28;;;23.70;37.76
15267;BME280;7735;49.144;8.668;2023-07-08T02:04:02;100114.75;;;23.66;37.32
15267;BME280;7735;49.144;8.668;2023-07-08T02:06:29;100113.06;;;23.65;37.33
15267;BME280;7735;49.144;8.668;2023-07-08T02:08:55;100108.69;;;23.64;37.44
15267;BME280;7735;49.144;8.668;2023-07-08T02:11:24;100104.34;;;23.63;37.45
15267;BME280;7735;49.144;8.668;2023-07-08T02:13:52;100115.81;;;23.63;37.33
15267;BME280;7735;49.144;8.668;2023-07-08T02:16:19;100116.03;;;23.60;37.29
15267;BME280;7735;49.144;8.668;2023-07-08T02:18:45;100120.38;;;23.61;37.52
15267;BME280;7735;49.144;8.668;2023-07-08T02:21:12;100129.34;;;23.59;37.48
15267;BME280;7735;49.144;8.668;2023-07-08T02:23:39;100129.34;;;23.59;37.47
15267;BME280;7735;49.144;8.668;2023-07-08T02:26:05;100122.31;;;23.58;37.53
15267;BME280;7735;49.144;8.668;2023-07-08T02:28:32;100139.22;;;23.57;37.33
15267;BME280;7735;49.144;8.668;2023-07-08T02:31:03;100142.94;;;23.54;37.28
15267;BME280;7735;49.144;8.668;2023-07-08T02:33:29;100146.56;;;23.53;37.23
15267;BME280;7735;49.144;8.668;2023-07-08T02:35:58;100150.91;;;23.54;37.43
15267;BME280;7735;49.144;8.668;2023-07-08T02:38:25;100151.00;;;23.53;37.47
15267;BME280;7735;49.144;8.668;2023-07-08T02:40:52;100148.53;;;23.50;37.52
15267;BME280;7735;49.144;8.668;2023-07-08T02:43:19;100155.84;;;23.46;37.54
15267;BME280;7735;49.144;8.668;2023-07-08T02:45:48;100157.84;;;23.42;37.91
15267;BME280;7735;49.144;8.668;2023-07-08T02:48:17;100172.16;;;23.40;37.86
15267;BME280;7735;49.144;8.668;2023-07-08T02:50:43;100172.25;;;23.38;37.85
15267;BME280;7735;49.144;8.668;2023-07-08T02:53:10;100167.13;;;23.35;37.93
15267;BME280;7735;49.144;8.668;2023-07-08T02:55:38;100162.88;;;23.33;37.78
15267;BME280;7735;49.144;8.668;2023-07-08T02:58:05;100151.44;;;23.31;37.89
15267;BME280;7735;49.144;8.668;2023-07-08T03:00:31;100156.00;;;23.29;37.91
15267;BME280;7735;49.144;8.668;2023-07-08T03:02:58;100156.09;;;23.27;37.65
15267;BME280;7735;49.144;8.668;2023-07-08T03:05:26;100160.66;;;23.25;37.89
15267;BME280;7735;49.144;8.668;2023-07-08T03:07:53;100165.13;;;23.25;37.93
15267;BME280;7735;49.144;8.668;2023-07-08T03:10:19;100154.56;;;23.23;37.84
15267;BME280;7735;49.144;8.668;2023-07-08T03:12:46;100162.72;;;23.20;37.85
15267;BME280;7735;49.144;8.668;2023-07-08T03:15:13;100161.03;;;23.19;38.07
15267;BME280;7735;49.144;8.668;2023-07-08T03:17:39;100159.31;;;23.18;38.24
15267;BME280;7735;49.144;8.668;2023-07-08T03:20:08;100168.22;;;23.17;38.07
15267;BME280;7735;49.144;8.668;2023-07-08T03:22:37;100154.19;;;23.15;38.14
15267;BME280;7735;49.144;8.668;2023-07-08T03:25:04;100163.94;;;23.14;38.32
15267;BME280;7735;49.144;8.668;2023-07-08T03:27:31;100157.78;;;23.14;38.26
15267;BME280;7735;49.144;8.668;2023-07-08T03:29:58;100168.41;;;23.14;38.52
15267;BME280;7735;49.144;8.668;2023-07-08T03:32:24;100169.44;;;23.11;38.63
15267;BME280;7735;49.144;8.668;2023-07-08T03:34:51;100166.03;;;23.09;38.51
15267;BME280;7735;49.144;8.668;2023-07-08T03:37:19;100171.53;;;23.06;38.59
15267;BME280;7735;49.144;8.668;2023-07-08T03:39:47;100176.00;;;23.06;38.45
15267;BME280;7735;49.144;8.668;2023-07-08T03:42:13;100172.53;;;23.04;38.62
15267;BME280;7735;49.144;8.668;2023-07-08T03:44:40;100176.34;;;23.00;38.60
15267;BME280;7735;49.144;8.668;2023-07-08T03:47:07;100176.34;;;23.00;38.90
15267;BME280;7735;49.144;8.668;2023-07-08T03:49:34;100172.94;;;22.98;38.84
15267;BME280;7735;49.144;8.668;2023-07-08T03:52:01;100185.41;;;22.96;38.83
15267;BME280;7735;49.144;8.668;2023-07-08T03:54:27;100183.72;;;22.95;39.12
15267;BME280;7735;49.144;8.668;2023-07-08T03:56:55;100182.94;;;22.93;39.20
15267;BME280;7735;49.144;8.668;2023-07-08T03:59:22;100177.63;;;22.93;39.08
15267;BME280;7735;49.144;8.668;2023-07-08T04:01:48;100173.09;;;22.95;38.98
15267;BME280;7735;49.144;8.668;2023-07-08T04:04:15;100181.81;;;22.97;38.99
15267;BME280;7735;49.144;8.668;2023-07-08T04:06:42;100177.38;;;22.97;39.18
15267;BME280;7735;49.144;8.668;2023-07-08T04:09:10;100173.00;;;22.96;39.07
15267;BME280;7735;49.144;8.668;2023-07-08T04:11:37;100165.97;;;22.95;39.13
15267;BME280;7735;49.144;8.668;2023-07-08T04:14:05;100164.38;;;22.93;39.15
15267;BME280;7735;49.144;8.668;2023-07-08T04:16:38;100163.50;;;22.92;39.16
15267;BME280;7735;49.144;8.668;2023-07-08T04:19:11;100163.59;;;22.91;39.09
15267;BME280;7735;49.144;8.668;2023-07-08T04:21:40;100166.25;;;22.91;39.06
15267;BME280;7735;49.144;8.668;2023-07-08T04:24:08;100155.44;;;22.94;39.05
15267;BME280;7735;49.144;8.668;2023-07-08T04:26:35;100153.75;;;22.93;39.22
15267;BME280;7735;49.144;8.668;2023-07-08T04:29:07;100170.53;;;22.93;39.29
15267;BME280;7735;49.144;8.668;2023-07-08T04:31:35;100167.88;;;22.93;39.17
15267;BME280;7735;49.144;8.668;2023-07-08T04:34:02;100166.06;;;22.94;39.24
15267;BME280;7735;49.144;8.668;2023-07-08T04:36:28;100166.16;;;22.92;39.13
15267;BME280;7735;49.144;8.668;2023-07-08T04:38:55;100171.56;;;22.91;39.11
15267;BME280;7735;49.144;8.668;2023-07-08T04:41:23;100171.56;;;22.91;39.11
15267;BME280;7735;49.144;8.668;2023-07-08T04:43:51;100180.47;;;22.89;39.33
15267;BME280;7735;49.144;8.668;2023-07-08T04:46:32;100186.47;;;22.93;39.21
15267;BME280;7735;49.144;8.668;2023-07-08T04:49:02;100189.97;;;22.94;39.28
15267;BME280;7735;49.144;8.668;2023-07-08T04:51:30;100187.31;;;22.94;39.24
15267;BME280;7735;49.144;8.668;2023-07-08T04:53:56;100192.63;;;22.94;39.22
15267;BME280;7735;49.144;8.668;2023-07-08T04:56:25;100200.41;;;22.97;39.25
15267;BME280;7735;49.144;8.668;2023-07-08T04:58:52;100196.75;;;22.99;39.22
15267;BME280;7735;49.144;8.668;2023-07-08T05:01:20;100191.22;;;23.02;39.39
15267;BME280;7735;49.144;8.668;2023-07-08T05:03:47;100191.94;;;23.06;39.15
15267;BME280;7735;49.144;8.668;2023-07-08T05:06:13;100201.41;;;23.10;39.32
15267;BME280;7735;49.144;8.668;2023-07-08T05:08:54;100193.25;;;23.13;39.24
15267;BME280;7735;49.144;8.668;2023-07-08T05:11:21;100187.78;;;23.16;39.38
15267;BME280;7735;49.144;8.668;2023-07-08T05:13:47;100187.38;;;23.22;39.63
15267;BME280;7735;49.144;8.668;2023-07-08T05:16:14;100196.91;;;23.26;39.63
15267;BME280;7735;49.144;8.668;2023-07-08T05:18:42;100191.31;;;23.31;39.54
15267;BME280;7735;49.144;8.668;2023-07-08T05:21:09;100186.69;;;23.34;39.74
15267;BME280;7735;49.144;8.668;2023-07-08T05:23:36;100205.84;;;23.39;39.71
15267;BME280;7735;49.144;8.668;2023-07-08T05:26:03;100206.34;;;23.46;39.89
15267;BME280;7735;49.144;8.668;2023-07-08T05:28:30;100210.44;;;23.52;39.97
15267;BME280;7735;49.144;8.668;2023-07-08T05:30:57;100211.00;;;23.57;39.73
15267;BME280;7735;49.144;8.668;2023-07-08T05:33:25;100223.97;;;23.63;39.45
15267;BME280;7735;49.144;8.668;2023-07-08T05:35:53;100241.25;;;23.70;38.88
15267;BME280;7735;49.144;8.668;2023-07-08T05:38:20;100255.13;;;23.75;38.44
15267;BME280;7735;49.144;8.668;2023-07-08T05:40:48;100271.75;;;23.79;38.12
15267;BME280;7735;49.144;8.668;2023-07-08T05:43:15;100290.28;;;23.80;38.09
15267;BME280;7735;49.144;8.668;2023-07-08T05:45:42;100307.00;;;23.82;38.25
15267;BME280;7735;49.144;8.668;2023-07-08T05:48:09;100310.34;;;23.86;38.05
15267;BME280;7735;49.144;8.668;2023-07-08T05:51:17;100296.84;;;23.89;38.22
15267;BME280;7735;49.144;8.668;2023-07-08T05:53:34;100293.13;;;23.91;38.17
15267;BME280;7735;49.144;8.668;2023-07-08T05:56:02;100294.69;;;23.95;37.89
15267;BME280;7735;49.144;8.668;2023-07-08T05:58:29;100291.72;;;24.00;38.17
15267;BME280;7735;49.144;8.668;2023-07-08T06:00:57;100297.63;;;24.05;38.26
15267;BME280;7735;49.144;8.668;2023-07-08T06:03:24;100308.81;;;24.10;38.78
15267;BME280;7735;49.144;8.668;2023-07-08T06:05:51;100303.34;;;24.13;38.77
15267;BME280;7735;49.144;8.668;2023-07-08T06:08:18;100315.50;;;24.17;38.59
15267;BME280;7735;49.144;8.668;2023-07-08T06:10:47;100316.06;;;24.22;38.41
15267;BME280;7735;49.144;8.668;2023-07-08T06:25:02;100322.16;;;24.53;37.90
15267;BME280;7735;49.144;8.668;2023-07-08T06:27:30;100324.47;;;24.59;37.83
15267;BME280;7735;49.144;8.668;2023-07-08T06:29:57;100329.47;;;24.64;38.13
15267;BME280;7735;49.144;8.668;2023-07-08T06:32:23;100332.72;;;24.69;38.26
15267;BME280;7735;49.144;8.668;2023-07-08T06:34:50;100315.50;;;24.74;38.68
15267;BME280;7735;49.144;8.668;2023-07-08T06:37:17;100317.00;;;24.78;38.39
15267;BME280;7735;49.144;8.668;2023-07-08T06:39:46;100317.66;;;24.82;38.76
15267;BME280;7735;49.144;8.668;2023-07-08T06:42:13;100311.28;;;24.84;38.88
15267;BME280;7735;49.144;8.668;2023-07-08T06:44:44;100311.94;;;24.88;39.25
15267;BME280;7735;49.144;8.668;2023-07-08T06:47:15;100314.41;;;24.91;39.24
15267;BME280;7735;49.144;8.668;2023-07-08T06:49:42;100319.44;;;24.96;39.40
15267;BME280;7735;49.144;8.668;2023-07-08T06:52:09;100304.09;;;24.99;39.35
15267;BME280;7735;49.144;8.668;2023-07-08T06:54:36;100302.03;;;25.04;39.82
15267;BME280;7735;49.144;8.668;2023-07-08T06:57:03;100302.13;;;25.30;39.55
15267;BME280;7735;49.144;8.668;2023-07-08T06:59:30;100296.88;;;25.55;39.00
15267;BME280;7735;49.144;8.668;2023-07-08T07:01:58;100296.66;;;25.58;39.22
15267;BME280;7735;49.144;8.668;2023-07-08T07:04:25;100292.38;;;25.56;39.44
15267;BME280;7735;49.144;8.668;2023-07-08T07:06:57;100292.56;;;25.53;39.93
15267;BME280;7735;49.144;8.668;2023-07-08T07:09:24;100282.13;;;25.50;40.24
15267;BME280;7735;49.144;8.668;2023-07-08T07:11:51;100280.31;;;25.50;40.18
15267;BME280;7735;49.144;8.668;2023-07-08T07:14:19;100293.47;;;25.53;40.66
15267;BME280;7735;49.144;8.668;2023-07-08T07:16:46;100289.63;;;25.57;41.01
15267;BME280;7735;49.144;8.668;2023-07-08T07:19:14;100285.97;;;25.58;41.05
15267;BME280;7735;49.144;8.668;2023-07-08T07:21:41;100284.91;;;25.61;41.17
15267;BME280;7735;49.144;8.668;2023-07-08T07:24:32;100282.06;;;25.64;41.41
15267;BME280;7735;49.144;8.668;2023-07-08T07:26:59;100287.28;;;25.65;41.53
15267;BME280;7735;49.144;8.668;2023-07-08T07:29:25;100289.56;;;25.72;41.59
15267;BME280;7735;49.144;8.668;2023-07-08T07:31:52;100284.75;;;25.77;41.91
15267;BME280;7735;49.144;8.668;2023-07-08T07:34:21;100290.75;;;25.80;41.92
15267;BME280;7735;49.144;8.668;2023-07-08T07:36:48;100291.38;;;25.84;42.09
15267;BME280;7735;49.144;8.668;2023-07-08T07:39:14;100287.53;;;25.88;42.38
15267;BME280;7735;49.144;8.668;2023-07-08T07:42:01;100290.75;;;25.93;42.35
15267;BME280;7735;49.144;8.668;2023-07-08T07:44:35;100293.00;;;25.99;42.78
15267;BME280;7735;49.144;8.668;2023-07-08T07:48:32;100293.53;;;26.04;42.40
15267;BME280;7735;49.144;8.668;2023-07-08T07:50:44;100288.97;;;26.06;42.91
15267;BME280;7735;49.144;8.668;2023-07-08T07:53:49;100294.81;;;26.11;42.53
15267;BME280;7735;49.144;8.668;2023-07-08T07:56:54;100302.06;;;26.09;42.83
15267;BME280;7735;49.144;8.668;2023-07-08T07:59:21;100300.16;;;26.11;42.67
15267;BME280;7735;49.144;8.668;2023-07-08T08:01:48;100308.03;;;26.13;42.87
15267;BME280;7735;49.144;8.668;2023-07-08T08:04:14;100302.69;;;26.13;42.92
15267;BME280;7735;49.144;8.668;2023-07-08T08:06:43;100316.72;;;26.16;43.18
15267;BME280;7735;49.144;8.668;2023-07-08T08:09:09;100305.91;;;26.18;42.82
15267;BME280;7735;49.144;8.668;2023-07-08T08:11:36;100312.09;;;26.18;42.68
15267;BME280;7735;49.144;8.668;2023-07-08T08:14:03;100310.28;;;26.19;43.00
15267;BME280;7735;49.144;8.668;2023-07-08T08:17:04;100312.72;;;26.22;43.06
15267;BME280;7735;49.144;8.668;2023-07-08T08:19:31;100315.41;;;26.22;43.08
15267;BME280;7735;49.144;8.668;2023-07-08T08:21:59;100315.28;;;26.23;43.16
15267;BME280;7735;49.144;8.668;2023-07-08T08:24:28;100316.06;;;26.25;42.85
15267;BME280;7735;49.144;8.668;2023-07-08T08:26:55;100321.28;;;26.27;43.01
15267;BME280;7735;49.144;8.668;2023-07-08T08:29:22;100315.94;;;26.27;43.00
15267;BME280;7735;49.144;8.668;2023-07-08T08:31:48;100318.63;;;26.27;43.32
15267;BME280;7735;49.144;8.668;2023-07-08T08:34:15;100321.91;;;26.31;42.94
15267;BME280;7735;49.144;8.668;2023-07-08T08:36:42;100321.72;;;26.34;43.29
15267;BME280;7735;49.144;8.668;2023-07-08T08:39:10;100324.06;;;26.38;43.16
15267;BME280;7735;49.144;8.668;2023-07-08T08:41:40;100324.72;;;26.42;42.72
15267;BME280;7735;49.144;8.668;2023-07-08T08:44:12;100327.91;;;26.47;42.40
15267;BME280;7735;49.144;8.668;2023-07-08T08:46:45;100338.28;;;26.51;42.14
15267;BME280;7735;49.144;8.668;2023-07-08T08:49:22;100334.41;;;26.56;42.24
15267;BME280;7735;49.144;8.668;2023-07-08T08:51:51;100329.94;;;26.56;42.48
15267;BME280;7735;49.144;8.668;2023-07-08T08:54:19;100329.69;;;26.59;42.56
15267;BME280;7735;49.144;8.668;2023-07-08T08:56:54;100328.53;;;26.63;42.59
15267;BME280;7735;49.144;8.668;2023-07-08T08:59:33;100325.88;;;26.63;42.27
15267;BME280;7735;49.144;8.668;2023-07-08T09:02:23;100332.38;;;26.72;41.94
15267;BME280;7735;49.144;8.668;2023-07-08T09:04:51;100336.44;;;26.77;41.46
15267;BME280;7735;49.144;8.668;2023-07-08T09:07:20;100327.94;;;26.83;40.63
15267;BME280;7735;49.144;8.668;2023-07-08T09:09:52;100325.69;;;26.90;40.24
15267;BME280;7735;49.144;8.668;2023-07-08T09:12:26;100328.66;;;26.98;39.56
15267;BME280;7735;49.144;8.668;2023-07-08T09:14:53;100326.91;;;27.10;38.46
15267;BME280;7735;49.144;8.668;2023-07-08T09:17:23;100313.84;;;27.18;38.05
15267;BME280;7735;49.144;8.668;2023-07-08T09:19:53;100322.38;;;27.23;37.79
15267;BME280;7735;49.144;8.668;2023-07-08T09:22:30;100317.22;;;27.33;37.19
15267;BME280;7735;49.144;8.668;2023-07-08T09:25:05;100316.63;;;27.41;36.97
15267;BME280;7735;49.144;8.668;2023-07-08T09:27:36;100322.25;;;27.49;36.66
15267;BME280;7735;49.144;8.668;2023-07-08T09:30:03;100314.72;;;27.54;36.79
15267;BME280;7735;49.144;8.668;2023-07-08T09:32:30;100313.41;;;27.59;36.49
15267;BME280;7735;49.144;8.668;2023-07-08T09:35:04;100310.63;;;27.61;36.66
15267;BME280;7735;49.144;8.668;2023-07-08T09:37:33;100307.69;;;27.64;36.29
15267;BME280;7735;49.144;8.668;2023-07-08T09:40:09;100310.19;;;27.67;36.47
15267;BME280;7735;49.144;8.668;2023-07-08T09:42:42;100306.56;;;27.68;36.42
15267;BME280;7735;49.144;8.668;2023-07-08T09:45:12;100309.94;;;27.70;36.30
15267;BME280;7735;49.144;8.668;2023-07-08T09:47:39;100320.19;;;27.76;35.50
15267;BME280;7735;49.144;8.668;2023-07-08T09:50:17;100317.53;;;27.87;34.82
15267;BME280;7735;49.144;8.668;2023-07-08T09:52:46;100310.50;;;27.98;33.65
15267;BME280;7735;49.144;8.668;2023-07-08T09:55:14;100313.09;;;28.10;32.76
15267;BME280;7735;49.144;8.668;2023-07-08T09:57:43;100313.44;;;28.17;32.75
15267;BME280;7735;49.144;8.668;2023-07-08T10:00:12;100318.44;;;28.21;32.73
15267;BME280;7735;49.144;8.668;2023-07-08T10:02:44;100312.97;;;28.23;32.91
15267;BME280;7735;49.144;8.668;2023-07-08T10:05:18;100313.47;;;28.28;33.09
15267;BME280;7735;49.144;8.668;2023-07-08T10:07:45;100316.66;;;28.33;33.42
15267;BME280;7735;49.144;8.668;2023-07-08T10:10:16;100309.84;;;28.40;32.92
15267;BME280;7735;49.144;8.668;2023-07-08T10:12:53;100317.53;;;28.45;32.63
15267;BME280;7735;49.144;8.668;2023-07-08T10:15:26;100308.13;;;28.50;32.78
15267;BME280;7735;49.144;8.668;2023-07-08T10:17:54;100313.13;;;28.55;32.65
15267;BME280;7735;49.144;8.668;2023-07-08T10:20:21;100300.06;;;28.84;31.57
15267;BME280;7735;49.144;8.668;2023-07-08T10:22:59;100303.44;;;29.09;31.51
15267;BME280;7735;49.144;8.668;2023-07-08T10:25:38;100303.03;;;29.13;32.13
15267;BME280;7735;49.144;8.668;2023-07-08T10:28:19;100302.06;;;29.14;31.58
15267;BME280;7735;49.144;8.668;2023-07-08T10:30:58;100307.41;;;29.14;31.44
15267;BME280;7735;49.144;8.668;2023-07-08T10:33:46;100306.72;;;29.12;31.46
15267;BME280;7735;49.144;8.668;2023-07-08T10:36:23;100294.41;;;29.10;31.27
15267;BME280;7735;49.144;8.668;2023-07-08T10:39:18;100305.84;;;29.12;31.57
15267;BME280;7735;49.144;8.668;2023-07-08T10:41:54;100301.47;;;29.11;31.67
15267;BME280;7735;49.144;8.668;2023-07-08T10:44:28;100304.75;;;29.14;32.01
15267;BME280;7735;49.144;8.668;2023-07-08T10:47:06;100303.53;;;29.18;32.07
15267;BME280;7735;49.144;8.668;2023-07-08T10:49:51;100294.22;;;29.22;32.51
15267;BME280;7735;49.144;8.668;2023-07-08T10:52:30;100294.00;;;29.25;32.36
15267;BME280;7735;49.144;8.668;2023-07-08T10:55:11;100294.72;;;29.27;32.70
15267;BME280;7735;49.144;8.668;2023-07-08T11:01:08;100290.75;;;29.43;31.65
15267;BME280;7735;49.144;8.668;2023-07-08T11:03:55;100300.84;;;29.50;31.93
15267;BME280;7735;49.144;8.668;2023-07-08T11:06:29;100295.81;;;29.57;30.85
15267;BME280;7735;49.144;8.668;2023-07-08T11:09:02;100292.75;;;29.61;30.99
15267;BME280;7735;49.144;8.668;2023-07-08T11:11:34;100297.59;;;29.68;30.85
15267;BME280;7735;49.144;8.668;2023-07-08T11:14:10;100290.44;;;29.99;28.96
15267;BME280;7735;49.144;8.668;2023-07-08T11:16:45;100295.75;;;30.31;28.60
15267;BME280;7735;49.144;8.668;2023-07-08T11:19:17;100295.75;;;30.31;28.99
15267;BME280;7735;49.144;8.668;2023-07-08T11:21:47;100300.75;;;30.14;29.52
15267;BME280;7735;49.144;8.668;2023-07-08T11:24:23;100289.59;;;29.98;29.56
15267;BME280;7735;49.144;8.668;2023-07-08T11:26:53;100287.09;;;29.85;30.05
15267;BME280;7735;49.144;8.668;2023-07-08T11:29:24;100292.16;;;29.79;30.27
15267;BME280;7735;49.144;8.668;2023-07-08T11:31:54;100290.91;;;29.83;30.53
15267;BME280;7735;49.144;8.668;2023-07-08T11:34:22;100298.97;;;29.83;30.63
15267;BME280;7735;49.144;8.668;2023-07-08T11:36:51;100288.41;;;29.91;30.93
15267;BME280;7735;49.144;8.668;2023-07-08T11:39:28;100292.41;;;29.97;30.92
15267;BME280;7735;49.144;8.668;2023-07-08T11:42:11;100291.56;;;29.96;30.99
15267;BME280;7735;49.144;8.668;2023-07-08T11:44:42;100291.81;;;29.93;31.77
15267;BME280;7735;49.144;8.668;2023-07-08T11:47:17;100290.13;;;29.92;31.12
15267;BME280;7735;49.144;8.668;2023-07-08T11:49:47;100282.78;;;29.94;31.33
15267;BME280;7735;49.144;8.668;2023-07-08T11:52:17;100278.16;;;29.96;31.33
15267;BME280;7735;49.144;8.668;2023-07-08T11:54:47;100279.69;;;29.99;31.10
15267;BME280;7735;49.144;8.668;2023-07-08T11:57:24;100283.09;;;30.01;31.50
15267;BME280;7735;49.144;8.668;2023-07-08T12:00:12;100278.72;;;30.00;31.16
15267;BME280;7735;49.144;8.668;2023-07-08T12:02:54;100274.06;;;30.02;31.46
15267;BME280;7735;49.144;8.668;2023-07-08T12:05:37;100268.03;;;30.09;31.33
15267;BME280;7735;49.144;8.668;2023-07-08T12:08:12;100271.81;;;30.28;31.40
15267;BME280;7735;49.144;8.668;2023-07-08T12:10:40;100269.44;;;30.34;31.38
15267;BME280;7735;49.144;8.668;2023-07-08T12:13:14;100260.41;;;30.45;30.75
15267;BME280;7735;49.144;8.668;2023-07-08T12:15:41;100273.31;;;30.51;30.93
15267;BME280;7735;49.144;8.668;2023-07-08T12:18:14;100265.53;;;30.48;31.24
15267;BME280;7735;49.144;8.668;2023-07-08T12:20:44;100266.91;;;30.42;31.25
15267;BME280;7735;49.144;8.668;2023-07-08T12:23:14;100263.78;;;30.37;31.21
15267;BME280;7735;49.144;8.668;2023-07-08T12:25:41;100262.22;;;30.35;31.22
15267;BME280;7735;49.144;8.668;2023-07-08T12:28:09;100258.97;;;30.31;31.22
15267;BME280;7735;49.144;8.668;2023-07-08T12:30:41;100256.84;;;30.35;31.37
15267;BME280;7735;49.144;8.668;2023-07-08T12:33:13;100251.94;;;30.40;31.19
15267;BME280;7735;49.144;8.668;2023-07-08T12:35:41;100258.44;;;30.47;30.97
15267;BME280;7735;49.144;8.668;2023-07-08T12:38:19;100256.72;;;30.46;31.28
15267;BME280;7735;49.144;8.668;2023-07-08T12:40:47;100256.88;;;30.44;31.20
15267;BME280;7735;49.144;8.668;2023-07-08T12:43:16;100257.91;;;30.53;31.04
15267;BME280;7735;49.144;8.668;2023-07-08T12:45:43;100259.94;;;30.70;30.53
15267;BME280;7735;49.144;8.668;2023-07-08T12:48:12;100257.13;;;30.82;30.09
15267;BME280;7735;49.144;8.668;2023-07-08T12:50:38;100256.75;;;30.96;30.03
15267;BME280;7735;49.144;8.668;2023-07-08T12:53:06;100261.13;;;30.97;30.13
15267;BME280;7735;49.144;8.668;2023-07-08T12:55:36;100248.97;;;30.93;29.55
15267;BME280;7735;49.144;8.668;2023-07-08T12:58:04;100251.22;;;30.88;29.61
15267;BME280;7735;49.144;8.668;2023-07-08T13:00:34;100244.13;;;30.87;29.59
15267;BME280;7735;49.144;8.668;2023-07-08T13:03:05;100252.34;;;30.95;29.44
15267;BME280;7735;49.144;8.668;2023-07-08T13:05:35;100248.66;;;30.96;29.79
15267;BME280;7735;49.144;8.668;2023-07-08T13:08:03;100255.19;;;30.93;29.90
15267;BME280;7735;49.144;8.668;2023-07-08T13:10:34;100252.06;;;30.98;29.30
15267;BME280;7735;49.144;8.668;2023-07-08T13:13:03;100243.28;;;31.15;29.16
15267;BME280;7735;49.144;8.668;2023-07-08T13:15:35;100247.69;;;31.26;28.80
15267;BME280;7735;49.144;8.668;2023-07-08T13:18:04;100250.81;;;31.31;28.54
15267;BME280;7735;49.144;8.668;2023-07-08T13:20:31;100246.72;;;31.37;28.37
15267;BME280;7735;49.144;8.668;2023-07-08T13:23:01;100248.97;;;31.41;28.28
15267;BME280;7735;49.144;8.668;2023-07-08T13:25:31;100241.31;;;31.46;28.06
15267;BME280;7735;49.144;8.668;2023-07-08T13:28:01;100243.19;;;31.46;28.04
15267;BME280;7735;49.144;8.668;2023-07-08T13:30:30;100246.56;;;31.48;28.18
15267;BME280;7735;49.144;8.668;2023-07-08T13:35:48;100249.03;;;31.88;27.84